| Date | Time | Temp. (oF) | Dew Point (oF) | Rel. Hum. (%) | Press. (in.) | Wind Dir. (deg.) | Wind Speed (mph) | Hourly Rainfall (i n.) |
|
|---|---|---|---|---|---|---|---|---|---|
| 1 | 06/01 | 24:00 | 70 | 56 | 62 | 30.21 | 150 | 0 | 0.00 |
| 2 | 05/31 | 23:00 | 72 | 56 | 58 | 30.20 | 150 | 1 | 0.00 |
| 3 | 05/31 | 22:00 | 74 | 55 | 53 | 30.18 | 150 | 0 | 0.00 |
| 4 | 05/31 | 21:00 | 77 | 55 | 48 | 30.15 | 150 | 1 | 0.00 |
| 5 | 05/31 | 20:00 | 81 | 58 | 46 | 30.13 | 130 | 2 | 0.00 |
| 6 | 05/31 | 19:00 | 82 | 57 | 43 | 30.14 | 140 | 2 | 0.00 |
| 7 | 05/31 | 18:00 | 86 | 57 | 39 | 30.16 | 150 | 2 | 0.00 |
| 8 | 05/31 | 17:00 | 87 | 54 | 34 | 30.16 | 230 | 9 | 0.00 |
| 9 | 05/31 | 16:00 | 88 | 54 | 32 | 30.18 | 130 | 4 | 0.00 |
| 10 | 05/31 | 15:00 | 90 | 56 | 33 | 30.18 | 130 | 4 | 0.00 |
| 11 | 05/31 | 14:00 | 90 | 53 | 30 | 30.19 | 150 | 9 | 0.00 |
| 12 | 05/31 | 13:00 | 88 | 58 | 37 | 30.21 | 130 | 6 | 0.00 |
| 13 | 05/31 | 12:00 | 87 | 60 | 42 | 30.22 | 130 | 4 | 0.00 |
| 14 | 05/31 | 11:00 | 83 | 63 | 52 | 30.23 | 220 | 2 | 0.00 |
| 15 | 05/31 | 10:00 | 74 | 60 | 63 | 30.23 | 290 | 0 | 0.00 |
| 16 | 05/31 | 09:00 | 69 | 60 | 74 | 30.24 | 290 | 0 | 0.00 |
| 17 | 05/31 | 08:00 | 63 | 58 | 85 | 30.25 | 290 | 0 | 0.00 |
| 18 | 05/31 | 07:00 | 60 | 55 | 84 | 30.29 | 290 | 0 | 0.00 |
| 19 | 05/31 | 06:00 | 60 | 54 | 82 | 30.32 | 290 | 0 | 0.00 |
| 20 | 05/31 | 05:00 | 61 | 54 | 80 | 30.32 | 290 | 0 | 0.00 |
| 21 | 05/31 | 04:00 | 62 | 55 | 78 | 30.32 | 290 | 0 | 0.00 |
| 22 | 05/31 | 03:00 | 63 | 55 | 76 | 30.32 | 290 | 0 | 0.00 |
| 23 | 05/31 | 02:00 | 64 | 56 | 76 | 30.33 | 290 | 0 | 0.00 |
| 24 | 05/31 | 01:00 | 66 | 57 | 73 | 30.33 | 290 | 0 | 0.00 |